sensor_id;sensor_type;location;lat;lon;timestamp;P1;durP1;ratioP1;P2;durP2;ratioP2
65686;SDS011;52406;45.078;38.986;2022-07-05T00:01:39;22.48;;;10.75;;
65686;SDS011;52406;45.078;38.986;2022-07-05T00:04:06;19.83;;;9.90;;
65686;SDS011;52406;45.078;38.986;2022-07-05T00:06:33;24.17;;;10.70;;
65686;SDS011;52406;45.078;38.986;2022-07-05T00:09:22;31.75;;;10.95;;
65686;SDS011;52406;45.078;38.986;2022-07-05T00:11:49;27.77;;;10.93;;
65686;SDS011;52406;45.078;38.986;2022-07-05T00:14:15;25.33;;;11.13;;
65686;SDS011;52406;45.078;38.986;2022-07-05T00:16:42;36.22;;;10.68;;
65686;SDS011;52406;45.078;38.986;2022-07-05T00:19:08;26.90;;;10.75;;
65686;SDS011;52406;45.078;38.986;2022-07-05T00:21:34;26.80;;;10.63;;
65686;SDS011;52406;45.078;38.986;2022-07-05T00:24:01;21.33;;;10.05;;
65686;SDS011;52406;45.078;38.986;2022-07-05T00:26:28;31.90;;;10.43;;
65686;SDS011;52406;45.078;38.986;2022-07-05T00:28:54;25.25;;;11.02;;
65686;SDS011;52406;45.078;38.986;2022-07-05T00:31:26;25.08;;;10.90;;
65686;SDS011;52406;45.078;38.986;2022-07-05T00:33:52;28.02;;;11.10;;
65686;SDS011;52406;45.078;38.986;2022-07-05T00:36:19;20.33;;;10.48;;
65686;SDS011;52406;45.078;38.986;2022-07-05T00:38:45;22.98;;;11.00;;
65686;SDS011;52406;45.078;38.986;2022-07-05T00:41:12;20.70;;;9.90;;
65686;SDS011;52406;45.078;38.986;2022-07-05T00:43:51;24.88;;;10.88;;
65686;SDS011;52406;45.078;38.986;2022-07-05T00:46:19;29.05;;;10.65;;
65686;SDS011;52406;45.078;38.986;2022-07-05T00:48:46;21.48;;;10.50;;
65686;SDS011;52406;45.078;38.986;2022-07-05T00:51:12;27.00;;;10.55;;
65686;SDS011;52406;45.078;38.986;2022-07-05T00:53:39;20.55;;;11.02;;
65686;SDS011;52406;45.078;38.986;2022-07-05T00:56:23;24.98;;;11.10;;
65686;SDS011;52406;45.078;38.986;2022-07-05T00:58:51;26.27;;;11.43;;
65686;SDS011;52406;45.078;38.986;2022-07-05T01:01:18;19.35;;;10.73;;
65686;SDS011;52406;45.078;38.986;2022-07-05T01:03:49;18.73;;;11.25;;
65686;SDS011;52406;45.078;38.986;2022-07-05T01:06:18;19.02;;;11.30;;
65686;SDS011;52406;45.078;38.986;2022-07-05T01:08:45;19.73;;;10.52;;
65686;SDS011;52406;45.078;38.986;2022-07-05T01:11:13;26.45;;;11.32;;
65686;SDS011;52406;45.078;38.986;2022-07-05T01:13:39;28.20;;;11.63;;
65686;SDS011;52406;45.078;38.986;2022-07-05T01:16:07;21.45;;;11.38;;
65686;SDS011;52406;45.078;38.986;2022-07-05T01:18:35;21.58;;;11.55;;
65686;SDS011;52406;45.078;38.986;2022-07-05T01:21:02;21.90;;;11.55;;
65686;SDS011;52406;45.078;38.986;2022-07-05T01:23:31;18.95;;;11.52;;
65686;SDS011;52406;45.078;38.986;2022-07-05T01:25:59;17.60;;;11.40;;
65686;SDS011;52406;45.078;38.986;2022-07-05T01:28:30;23.08;;;11.40;;
65686;SDS011;52406;45.078;38.986;2022-07-05T01:30:56;22.10;;;11.73;;
65686;SDS011;52406;45.078;38.986;2022-07-05T01:33:29;20.55;;;10.88;;
65686;SDS011;52406;45.078;38.986;2022-07-05T01:35:57;21.90;;;11.52;;
65686;SDS011;52406;45.078;38.986;2022-07-05T01:38:25;18.02;;;11.90;;
65686;SDS011;52406;45.078;38.986;2022-07-05T01:40:53;23.35;;;11.85;;
65686;SDS011;52406;45.078;38.986;2022-07-05T01:43:21;19.80;;;11.55;;
65686;SDS011;52406;45.078;38.986;2022-07-05T01:45:51;21.15;;;11.95;;
65686;SDS011;52406;45.078;38.986;2022-07-05T01:48:21;21.98;;;12.18;;
65686;SDS011;52406;45.078;38.986;2022-07-05T01:50:51;20.25;;;12.00;;
65686;SDS011;52406;45.078;38.986;2022-07-05T01:53:24;20.98;;;11.93;;
65686;SDS011;52406;45.078;38.986;2022-07-05T01:55:59;19.75;;;11.63;;
65686;SDS011;52406;45.078;38.986;2022-07-05T01:58:27;20.15;;;11.43;;
65686;SDS011;52406;45.078;38.986;2022-07-05T02:00:56;16.77;;;12.00;;
65686;SDS011;52406;45.078;38.986;2022-07-05T02:03:25;21.35;;;12.18;;
65686;SDS011;52406;45.078;38.986;2022-07-05T02:05:53;21.70;;;11.88;;
65686;SDS011;52406;45.078;38.986;2022-07-05T02:08:20;18.40;;;12.10;;
65686;SDS011;52406;45.078;38.986;2022-07-05T02:10:54;18.98;;;11.25;;
65686;SDS011;52406;45.078;38.986;2022-07-05T02:13:20;21.55;;;11.32;;
65686;SDS011;52406;45.078;38.986;2022-07-05T02:15:47;21.42;;;11.85;;
65686;SDS011;52406;45.078;38.986;2022-07-05T02:18:14;21.58;;;11.70;;
65686;SDS011;52406;45.078;38.986;2022-07-05T02:20:45;18.08;;;11.52;;
65686;SDS011;52406;45.078;38.986;2022-07-05T02:23:12;21.15;;;12.38;;
65686;SDS011;52406;45.078;38.986;2022-07-05T02:25:39;19.90;;;12.80;;
65686;SDS011;52406;45.078;38.986;2022-07-05T02:28:12;20.17;;;12.20;;
65686;SDS011;52406;45.078;38.986;2022-07-05T02:30:41;26.88;;;12.00;;
65686;SDS011;52406;45.078;38.986;2022-07-05T02:33:08;20.30;;;11.88;;
65686;SDS011;52406;45.078;38.986;2022-07-05T02:35:34;23.27;;;12.18;;
65686;SDS011;52406;45.078;38.986;2022-07-05T02:38:01;21.00;;;13.07;;
65686;SDS011;52406;45.078;38.986;2022-07-05T02:40:27;19.13;;;11.35;;
65686;SDS011;52406;45.078;38.986;2022-07-05T02:42:56;23.73;;;12.10;;
65686;SDS011;52406;45.078;38.986;2022-07-05T02:45:24;20.42;;;11.95;;
65686;SDS011;52406;45.078;38.986;2022-07-05T02:47:56;21.88;;;12.75;;
65686;SDS011;52406;45.078;38.986;2022-07-05T02:50:24;27.50;;;12.43;;
65686;SDS011;52406;45.078;38.986;2022-07-05T02:52:52;21.77;;;12.30;;
65686;SDS011;52406;45.078;38.986;2022-07-05T02:55:22;21.67;;;11.85;;
65686;SDS011;52406;45.078;38.986;2022-07-05T02:57:51;18.20;;;11.68;;
65686;SDS011;52406;45.078;38.986;2022-07-05T03:00:23;20.77;;;12.23;;
65686;SDS011;52406;45.078;38.986;2022-07-05T03:02:50;22.13;;;11.77;;
65686;SDS011;52406;45.078;38.986;2022-07-05T03:05:17;24.83;;;11.80;;
65686;SDS011;52406;45.078;38.986;2022-07-05T03:07:52;20.33;;;11.38;;
65686;SDS011;52406;45.078;38.986;2022-07-05T03:10:23;23.38;;;12.07;;
65686;SDS011;52406;45.078;38.986;2022-07-05T03:12:52;22.65;;;12.18;;
65686;SDS011;52406;45.078;38.986;2022-07-05T03:15:26;21.15;;;11.10;;
65686;SDS011;52406;45.078;38.986;2022-07-05T03:17:53;23.50;;;11.60;;
65686;SDS011;52406;45.078;38.986;2022-07-05T03:20:21;21.42;;;11.48;;
65686;SDS011;52406;45.078;38.986;2022-07-05T03:22:49;25.27;;;11.82;;
65686;SDS011;52406;45.078;38.986;2022-07-05T03:25:18;21.25;;;11.80;;
65686;SDS011;52406;45.078;38.986;2022-07-05T03:27:45;22.65;;;10.73;;
65686;SDS011;52406;45.078;38.986;2022-07-05T03:30:12;21.80;;;11.70;;
65686;SDS011;52406;45.078;38.986;2022-07-05T03:32:41;16.80;;;10.60;;
65686;SDS011;52406;45.078;38.986;2022-07-05T03:35:07;16.55;;;9.60;;
65686;SDS011;52406;45.078;38.986;2022-07-05T03:37:35;16.17;;;9.80;;
65686;SDS011;52406;45.078;38.986;2022-07-05T03:40:02;16.25;;;9.55;;
65686;SDS011;52406;45.078;38.986;2022-07-05T03:42:29;17.73;;;9.90;;
65686;SDS011;52406;45.078;38.986;2022-07-05T03:44:57;14.88;;;9.45;;
65686;SDS011;52406;45.078;38.986;2022-07-05T03:47:25;20.65;;;10.13;;
65686;SDS011;52406;45.078;38.986;2022-07-05T03:49:51;17.80;;;9.73;;
65686;SDS011;52406;45.078;38.986;2022-07-05T03:52:20;16.00;;;10.07;;
65686;SDS011;52406;45.078;38.986;2022-07-05T03:54:49;18.70;;;9.20;;
65686;SDS011;52406;45.078;38.986;2022-07-05T03:57:16;16.70;;;10.55;;
65686;SDS011;52406;45.078;38.986;2022-07-05T03:59:43;18.08;;;9.80;;
65686;SDS011;52406;45.078;38.986;2022-07-05T04:02:10;17.85;;;10.35;;
65686;SDS011;52406;45.078;38.986;2022-07-05T04:04:38;22.88;;;9.52;;
65686;SDS011;52406;45.078;38.986;2022-07-05T04:07:05;17.15;;;9.38;;
65686;SDS011;52406;45.078;38.986;2022-07-05T04:09:33;14.32;;;8.85;;
65686;SDS011;52406;45.078;38.986;2022-07-05T04:12:01;15.50;;;9.05;;
65686;SDS011;52406;45.078;38.986;2022-07-05T04:14:31;16.80;;;9.23;;
65686;SDS011;52406;45.078;38.986;2022-07-05T04:17:00;14.52;;;9.18;;
65686;SDS011;52406;45.078;38.986;2022-07-05T04:19:26;19.50;;;9.23;;
65686;SDS011;52406;45.078;38.986;2022-07-05T04:21:53;20.50;;;10.00;;
65686;SDS011;52406;45.078;38.986;2022-07-05T04:24:20;18.02;;;8.55;;
65686;SDS011;52406;45.078;38.986;2022-07-05T04:26:49;16.83;;;9.30;;
65686;SDS011;52406;45.078;38.986;2022-07-05T04:29:16;16.65;;;9.13;;
65686;SDS011;52406;45.078;38.986;2022-07-05T04:31:44;13.73;;;9.10;;
65686;SDS011;52406;45.078;38.986;2022-07-05T04:34:10;16.55;;;8.75;;
65686;SDS011;52406;45.078;38.986;2022-07-05T04:36:40;14.90;;;8.95;;
65686;SDS011;52406;45.078;38.986;2022-07-05T04:39:11;17.02;;;9.73;;
65686;SDS011;52406;45.078;38.986;2022-07-05T04:41:45;17.55;;;8.73;;
65686;SDS011;52406;45.078;38.986;2022-07-05T04:44:14;18.58;;;9.10;;
65686;SDS011;52406;45.078;38.986;2022-07-05T04:46:41;17.00;;;9.90;;
65686;SDS011;52406;45.078;38.986;2022-07-05T04:49:08;16.80;;;8.88;;
65686;SDS011;52406;45.078;38.986;2022-07-05T04:51:35;20.15;;;9.75;;
65686;SDS011;52406;45.078;38.986;2022-07-05T04:54:01;14.90;;;9.50;;
65686;SDS011;52406;45.078;38.986;2022-07-05T04:56:28;18.02;;;9.00;;
65686;SDS011;52406;45.078;38.986;2022-07-05T04:58:55;12.25;;;7.93;;
65686;SDS011;52406;45.078;38.986;2022-07-05T05:01:21;13.68;;;8.18;;
65686;SDS011;52406;45.078;38.986;2022-07-05T05:03:48;16.00;;;7.90;;
65686;SDS011;52406;45.078;38.986;2022-07-05T05:06:14;14.73;;;8.60;;
65686;SDS011;52406;45.078;38.986;2022-07-05T05:08:44;20.50;;;8.68;;
65686;SDS011;52406;45.078;38.986;2022-07-05T05:11:11;11.15;;;8.35;;
65686;SDS011;52406;45.078;38.986;2022-07-05T05:13:38;18.08;;;8.30;;
65686;SDS011;52406;45.078;38.986;2022-07-05T05:16:08;14.82;;;8.13;;
65686;SDS011;52406;45.078;38.986;2022-07-05T05:18:34;15.27;;;7.65;;
65686;SDS011;52406;45.078;38.986;2022-07-05T05:21:01;11.77;;;7.47;;
65686;SDS011;52406;45.078;38.986;2022-07-05T05:23:27;16.08;;;8.25;;
65686;SDS011;52406;45.078;38.986;2022-07-05T05:25:54;12.63;;;8.07;;
65686;SDS011;52406;45.078;38.986;2022-07-05T05:28:21;14.82;;;8.18;;
65686;SDS011;52406;45.078;38.986;2022-07-05T05:30:47;17.98;;;8.18;;
65686;SDS011;52406;45.078;38.986;2022-07-05T05:33:14;13.43;;;7.80;;
65686;SDS011;52406;45.078;38.986;2022-07-05T05:35:40;14.98;;;7.38;;
65686;SDS011;52406;45.078;38.986;2022-07-05T05:38:07;13.25;;;7.32;;
65686;SDS011;52406;45.078;38.986;2022-07-05T05:40:36;12.57;;;7.53;;
65686;SDS011;52406;45.078;38.986;2022-07-05T05:43:07;20.00;;;7.85;;
65686;SDS011;52406;45.078;38.986;2022-07-05T05:45:33;12.43;;;7.68;;
65686;SDS011;52406;45.078;38.986;2022-07-05T05:48:02;12.55;;;7.72;;
65686;SDS011;52406;45.078;38.986;2022-07-05T05:50:35;14.80;;;8.15;;
65686;SDS011;52406;45.078;38.986;2022-07-05T05:53:02;11.75;;;7.70;;
65686;SDS011;52406;45.078;38.986;2022-07-05T05:55:33;11.75;;;7.53;;
65686;SDS011;52406;45.078;38.986;2022-07-05T06:00:55;16.38;;;8.02;;
65686;SDS011;52406;45.078;38.986;2022-07-05T06:03:23;13.32;;;7.88;;
65686;SDS011;52406;45.078;38.986;2022-07-05T06:06:00;13.55;;;8.10;;
65686;SDS011;52406;45.078;38.986;2022-07-05T06:08:29;16.55;;;8.57;;
65686;SDS011;52406;45.078;38.986;2022-07-05T06:10:56;13.60;;;7.55;;
65686;SDS011;52406;45.078;38.986;2022-07-05T06:13:23;12.60;;;7.80;;
65686;SDS011;52406;45.078;38.986;2022-07-05T06:16:09;15.65;;;8.15;;
65686;SDS011;52406;45.078;38.986;2022-07-05T06:18:36;14.88;;;7.43;;
65686;SDS011;52406;45.078;38.986;2022-07-05T06:21:02;13.20;;;7.18;;
65686;SDS011;52406;45.078;38.986;2022-07-05T06:23:29;15.32;;;8.00;;
65686;SDS011;52406;45.078;38.986;2022-07-05T06:25:55;13.90;;;7.82;;
65686;SDS011;52406;45.078;38.986;2022-07-05T06:28:25;11.40;;;7.78;;
65686;SDS011;52406;45.078;38.986;2022-07-05T06:30:52;12.63;;;6.85;;
65686;SDS011;52406;45.078;38.986;2022-07-05T06:33:19;9.32;;;6.80;;
65686;SDS011;52406;45.078;38.986;2022-07-05T06:35:46;12.93;;;7.10;;
65686;SDS011;52406;45.078;38.986;2022-07-05T06:38:12;25.88;;;7.20;;
65686;SDS011;52406;45.078;38.986;2022-07-05T06:40:40;11.70;;;6.90;;
65686;SDS011;52406;45.078;38.986;2022-07-05T06:43:09;12.70;;;6.60;;
65686;SDS011;52406;45.078;38.986;2022-07-05T06:45:40;10.10;;;6.70;;
65686;SDS011;52406;45.078;38.986;2022-07-05T06:48:10;10.43;;;6.47;;
65686;SDS011;52406;45.078;38.986;2022-07-05T06:50:38;11.90;;;7.03;;
65686;SDS011;52406;45.078;38.986;2022-07-05T06:53:07;14.90;;;6.93;;
65686;SDS011;52406;45.078;38.986;2022-07-05T06:55:35;10.77;;;6.15;;
65686;SDS011;52406;45.078;38.986;2022-07-05T06:58:06;12.60;;;6.78;;
65686;SDS011;52406;45.078;38.986;2022-07-05T07:00:34;11.60;;;6.45;;
65686;SDS011;52406;45.078;38.986;2022-07-05T07:03:03;14.05;;;6.57;;
65686;SDS011;52406;45.078;38.986;2022-07-05T07:05:32;14.23;;;6.30;;
65686;SDS011;52406;45.078;38.986;2022-07-05T07:07:58;13.45;;;6.15;;
65686;SDS011;52406;45.078;38.986;2022-07-05T07:10:43;9.73;;;5.78;;
65686;SDS011;52406;45.078;38.986;2022-07-05T07:13:10;11.55;;;5.72;;
65686;SDS011;52406;45.078;38.986;2022-07-05T07:15:42;9.68;;;5.55;;
65686;SDS011;52406;45.078;38.986;2022-07-05T07:18:08;13.93;;;5.82;;
65686;SDS011;52406;45.078;38.986;2022-07-05T07:20:40;14.98;;;5.70;;
65686;SDS011;52406;45.078;38.986;2022-07-05T07:23:07;11.95;;;5.97;;
65686;SDS011;52406;45.078;38.986;2022-07-05T07:25:34;9.27;;;5.72;;
65686;SDS011;52406;45.078;38.986;2022-07-05T07:28:01;17.70;;;5.20;;
65686;SDS011;52406;45.078;38.986;2022-07-05T07:30:28;12.75;;;5.55;;
65686;SDS011;52406;45.078;38.986;2022-07-05T07:32:55;11.32;;;5.32;;
65686;SDS011;52406;45.078;38.986;2022-07-05T07:35:30;10.52;;;4.60;;
65686;SDS011;52406;45.078;38.986;2022-07-05T07:37:56;6.45;;;5.15;;
65686;SDS011;52406;45.078;38.986;2022-07-05T07:40:25;8.15;;;4.85;;
65686;SDS011;52406;45.078;38.986;2022-07-05T07:42:51;8.52;;;4.50;;
65686;SDS011;52406;45.078;38.986;2022-07-05T07:45:19;8.90;;;4.50;;
65686;SDS011;52406;45.078;38.986;2022-07-05T07:47:46;8.85;;;4.50;;
65686;SDS011;52406;45.078;38.986;2022-07-05T07:50:12;9.30;;;4.78;;
65686;SDS011;52406;45.078;38.986;2022-07-05T07:52:40;13.32;;;4.80;;
65686;SDS011;52406;45.078;38.986;2022-07-05T07:55:06;9.57;;;3.85;;
65686;SDS011;52406;45.078;38.986;2022-07-05T07:57:36;7.97;;;4.32;;
65686;SDS011;52406;45.078;38.986;2022-07-05T08:00:03;10.43;;;4.75;;
65686;SDS011;52406;45.078;38.986;2022-07-05T08:02:37;10.73;;;5.20;;
65686;SDS011;52406;45.078;38.986;2022-07-05T08:05:03;14.10;;;4.97;;
65686;SDS011;52406;45.078;38.986;2022-07-05T08:07:30;12.00;;;5.30;;
65686;SDS011;52406;45.078;38.986;2022-07-05T08:09:57;10.30;;;5.72;;
65686;SDS011;52406;45.078;38.986;2022-07-05T08:12:25;13.00;;;5.60;;
65686;SDS011;52406;45.078;38.986;2022-07-05T08:14:51;16.33;;;5.72;;
65686;SDS011;52406;45.078;38.986;2022-07-05T08:17:18;11.40;;;5.15;;
65686;SDS011;52406;45.078;38.986;2022-07-05T08:19:46;14.48;;;5.35;;
65686;SDS011;52406;45.078;38.986;2022-07-05T08:22:31;15.77;;;5.70;;
65686;SDS011;52406;45.078;38.986;2022-07-05T08:25:01;11.20;;;5.53;;
65686;SDS011;52406;45.078;38.986;2022-07-05T08:27:28;14.65;;;6.43;;
65686;SDS011;52406;45.078;38.986;2022-07-05T08:29:57;16.98;;;5.20;;
65686;SDS011;52406;45.078;38.986;2022-07-05T08:32:23;14.82;;;5.40;;
65686;SDS011;52406;45.078;38.986;2022-07-05T08:34:50;13.40;;;4.78;;
65686;SDS011;52406;45.078;38.986;2022-07-05T08:37:16;13.75;;;5.13;;
65686;SDS011;52406;45.078;38.986;2022-07-05T08:39:43;7.03;;;4.18;;
65686;SDS011;52406;45.078;38.986;2022-07-05T08:42:09;13.48;;;4.50;;
65686;SDS011;52406;45.078;38.986;2022-07-05T08:44:37;8.27;;;3.90;;
65686;SDS011;52406;45.078;38.986;2022-07-05T08:47:11;7.80;;;4.05;;
65686;SDS011;52406;45.078;38.986;2022-07-05T08:49:39;7.68;;;3.65;;
65686;SDS011;52406;45.078;38.986;2022-07-05T08:52:07;9.98;;;4.20;;
65686;SDS011;52406;45.078;38.986;2022-07-05T08:54:36;9.25;;;3.70;;
65686;SDS011;52406;45.078;38.986;2022-07-05T08:57:03;6.22;;;3.47;;
65686;SDS011;52406;45.078;38.986;2022-07-05T08:59:31;6.78;;;3.72;;
65686;SDS011;52406;45.078;38.986;2022-07-05T09:02:00;11.27;;;4.00;;
65686;SDS011;52406;45.078;38.986;2022-07-05T09:04:30;5.60;;;3.83;;
65686;SDS011;52406;45.078;38.986;2022-07-05T09:07:02;10.43;;;3.70;;
65686;SDS011;52406;45.078;38.986;2022-07-05T09:09:30;10.00;;;3.50;;
65686;SDS011;52406;45.078;38.986;2022-07-05T09:12:00;7.97;;;4.15;;
65686;SDS011;52406;45.078;38.986;2022-07-05T09:14:26;4.78;;;3.22;;
65686;SDS011;52406;45.078;38.986;2022-07-05T09:16:53;10.30;;;3.80;;
65686;SDS011;52406;45.078;38.986;2022-07-05T09:19:19;6.22;;;3.42;;
65686;SDS011;52406;45.078;38.986;2022-07-05T09:21:47;6.00;;;3.90;;
65686;SDS011;52406;45.078;38.986;2022-07-05T09:24:20;5.47;;;3.33;;
65686;SDS011;52406;45.078;38.986;2022-07-05T09:26:47;5.20;;;3.67;;
65686;SDS011;52406;45.078;38.986;2022-07-05T09:29:15;8.80;;;3.28;;
65686;SDS011;52406;45.078;38.986;2022-07-05T09:31:45;6.43;;;3.97;;
65686;SDS011;52406;45.078;38.986;2022-07-05T09:34:18;8.68;;;3.63;;
65686;SDS011;52406;45.078;38.986;2022-07-05T09:36:55;7.28;;;3.78;;
65686;SDS011;52406;45.078;38.986;2022-07-05T09:39:35;11.82;;;3.67;;
65686;SDS011;52406;45.078;38.986;2022-07-05T09:42:10;9.50;;;3.95;;
65686;SDS011;52406;45.078;38.986;2022-07-05T09:47:20;8.05;;;3.55;;
65686;SDS011;52406;45.078;38.986;2022-07-05T09:49:51;7.15;;;4.05;;
65686;SDS011;52406;45.078;38.986;2022-07-05T09:52:53;8.77;;;3.50;;
65686;SDS011;52406;45.078;38.986;2022-07-05T09:57:42;5.50;;;3.65;;
65686;SDS011;52406;45.078;38.986;2022-07-05T10:00:10;10.07;;;3.65;;
65686;SDS011;52406;45.078;38.986;2022-07-05T10:02:44;6.50;;;4.00;;
65686;SDS011;52406;45.078;38.986;2022-07-05T10:05:18;8.75;;;3.70;;
65686;SDS011;52406;45.078;38.986;2022-07-05T10:07:50;7.43;;;3.75;;
65686;SDS011;52406;45.078;38.986;2022-07-05T10:10:19;6.72;;;3.65;;
65686;SDS011;52406;45.078;38.986;2022-07-05T10:12:50;13.68;;;4.25;;
65686;SDS011;52406;45.078;38.986;2022-07-05T10:15:29;7.38;;;3.85;;
65686;SDS011;52406;45.078;38.986;2022-07-05T10:18:06;6.32;;;4.05;;
65686;SDS011;52406;45.078;38.986;2022-07-05T10:23:13;9.02;;;3.92;;
65686;SDS011;52406;45.078;38.986;2022-07-05T10:25:42;9.13;;;3.60;;
65686;SDS011;52406;45.078;38.986;2022-07-05T10:28:16;10.45;;;4.00;;
65686;SDS011;52406;45.078;38.986;2022-07-05T10:30:44;15.98;;;4.45;;
65686;SDS011;52406;45.078;38.986;2022-07-05T10:33:18;8.75;;;4.28;;
65686;SDS011;52406;45.078;38.986;2022-07-05T10:35:52;5.70;;;3.72;;
65686;SDS011;52406;45.078;38.986;2022-07-05T10:38:22;6.07;;;3.50;;
65686;SDS011;52406;45.078;38.986;2022-07-05T10:40:54;6.85;;;3.88;;
65686;SDS011;52406;45.078;38.986;2022-07-05T10:43:26;9.50;;;3.83;;
65686;SDS011;52406;45.078;38.986;2022-07-05T10:45:56;6.43;;;4.10;;
65686;SDS011;52406;45.078;38.986;2022-07-05T10:48:29;17.80;;;3.53;;
65686;SDS011;52406;45.078;38.986;2022-07-05T11:06:25;4.60;;;3.65;;
65686;SDS011;52406;45.078;38.986;2022-07-05T11:11:38;7.35;;;3.92;;
65686;SDS011;52406;45.078;38.986;2022-07-05T11:17:16;6.70;;;3.83;;
65686;SDS011;52406;45.078;38.986;2022-07-05T11:22:29;5.50;;;4.00;;
65686;SDS011;52406;45.078;38.986;2022-07-05T11:24:56;6.90;;;3.85;;
65686;SDS011;52406;45.078;38.986;2022-07-05T11:27:24;7.53;;;3.97;;
65686;SDS011;52406;45.078;38.986;2022-07-05T11:32:19;6.65;;;3.92;;
65686;SDS011;52406;45.078;38.986;2022-07-05T11:35:11;6.35;;;4.00;;
65686;SDS011;52406;45.078;38.986;2022-07-05T11:38:00;5.63;;;4.35;;
65686;SDS011;52406;45.078;38.986;2022-07-05T11:40:39;7.35;;;4.13;;
65686;SDS011;52406;45.078;38.986;2022-07-05T11:43:06;5.82;;;4.25;;
65686;SDS011;52406;45.078;38.986;2022-07-05T11:45:36;9.73;;;4.30;;
65686;SDS011;52406;45.078;38.986;2022-07-05T11:48:04;14.65;;;4.63;;
65686;SDS011;52406;45.078;38.986;2022-07-05T11:50:32;13.77;;;4.57;;
65686;SDS011;52406;45.078;38.986;2022-07-05T11:53:02;6.97;;;4.80;;
65686;SDS011;52406;45.078;38.986;2022-07-05T11:55:29;6.63;;;3.70;;
65686;SDS011;52406;45.078;38.986;2022-07-05T11:57:56;6.82;;;3.63;;
65686;SDS011;52406;45.078;38.986;2022-07-05T12:00:27;8.27;;;3.90;;
65686;SDS011;52406;45.078;38.986;2022-07-05T12:02:58;7.30;;;3.42;;
65686;SDS011;52406;45.078;38.986;2022-07-05T12:05:31;7.60;;;4.10;;
65686;SDS011;52406;45.078;38.986;2022-07-05T12:08:01;10.02;;;3.90;;
65686;SDS011;52406;45.078;38.986;2022-07-05T12:10:28;8.35;;;3.88;;
65686;SDS011;52406;45.078;38.986;2022-07-05T12:13:13;8.68;;;3.63;;
65686;SDS011;52406;45.078;38.986;2022-07-05T12:15:39;5.50;;;3.97;;
65686;SDS011;52406;45.078;38.986;2022-07-05T12:18:09;7.50;;;4.38;;
65686;SDS011;52406;45.078;38.986;2022-07-05T12:20:38;11.68;;;4.22;;
65686;SDS011;52406;45.078;38.986;2022-07-05T12:23:06;7.63;;;4.68;;
65686;SDS011;52406;45.078;38.986;2022-07-05T12:25:38;9.43;;;4.57;;
65686;SDS011;52406;45.078;38.986;2022-07-05T12:28:05;11.32;;;4.22;;
65686;SDS011;52406;45.078;38.986;2022-07-05T12:30:35;12.18;;;4.53;;
65686;SDS011;52406;45.078;38.986;2022-07-05T12:33:06;11.05;;;5.00;;
65686;SDS011;52406;45.078;38.986;2022-07-05T12:40:39;12.55;;;4.25;;
65686;SDS011;52406;45.078;38.986;2022-07-05T12:43:09;8.45;;;4.10;;
65686;SDS011;52406;45.078;38.986;2022-07-05T12:45:44;7.25;;;3.90;;
65686;SDS011;52406;45.078;38.986;2022-07-05T12:48:34;9.68;;;3.78;;
65686;SDS011;52406;45.078;38.986;2022-07-05T12:51:05;8.45;;;3.55;;
65686;SDS011;52406;45.078;38.986;2022-07-05T12:53:33;10.05;;;3.95;;
65686;SDS011;52406;45.078;38.986;2022-07-05T12:56:23;7.82;;;4.20;;
65686;SDS011;52406;45.078;38.986;2022-07-05T12:59:08;10.48;;;4.10;;
65686;SDS011;52406;45.078;38.986;2022-07-05T13:01:40;16.90;;;4.45;;
65686;SDS011;52406;45.078;38.986;2022-07-05T13:04:15;9.25;;;4.15;;
65686;SDS011;52406;45.078;38.986;2022-07-05T13:06:55;12.90;;;4.00;;
65686;SDS011;52406;45.078;38.986;2022-07-05T13:12:05;12.13;;;4.25;;
65686;SDS011;52406;45.078;38.986;2022-07-05T13:14:58;7.28;;;3.92;;
65686;SDS011;52406;45.078;38.986;2022-07-05T13:17:25;9.55;;;4.57;;
65686;SDS011;52406;45.078;38.986;2022-07-05T13:19:54;10.40;;;3.90;;
65686;SDS011;52406;45.078;38.986;2022-07-05T13:22:25;6.95;;;3.92;;
65686;SDS011;52406;45.078;38.986;2022-07-05T13:24:52;7.72;;;4.05;;
65686;SDS011;52406;45.078;38.986;2022-07-05T13:27:20;10.55;;;3.95;;
65686;SDS011;52406;45.078;38.986;2022-07-05T13:29:46;10.82;;;4.25;;
65686;SDS011;52406;45.078;38.986;2022-07-05T13:32:17;11.65;;;4.45;;
65686;SDS011;52406;45.078;38.986;2022-07-05T13:34:47;12.63;;;4.47;;
65686;SDS011;52406;45.078;38.986;2022-07-05T13:37:14;16.30;;;3.70;;
65686;SDS011;52406;45.078;38.986;2022-07-05T13:39:41;16.00;;;4.22;;
65686;SDS011;52406;45.078;38.986;2022-07-05T13:42:07;7.20;;;3.70;;
65686;SDS011;52406;45.078;38.986;2022-07-05T13:44:34;7.82;;;3.90;;
65686;SDS011;52406;45.078;38.986;2022-07-05T13:47:01;8.50;;;4.15;;
65686;SDS011;52406;45.078;38.986;2022-07-05T13:49:28;9.65;;;4.22;;
65686;SDS011;52406;45.078;38.986;2022-07-05T13:51:56;8.05;;;4.07;;
65686;SDS011;52406;45.078;38.986;2022-07-05T13:54:26;10.30;;;4.13;;
65686;SDS011;52406;45.078;38.986;2022-07-05T13:56:55;10.60;;;4.47;;
65686;SDS011;52406;45.078;38.986;2022-07-05T13:59:22;11.30;;;4.00;;
65686;SDS011;52406;45.078;38.986;2022-07-05T14:01:48;5.72;;;3.80;;
65686;SDS011;52406;45.078;38.986;2022-07-05T14:04:15;5.57;;;3.95;;
65686;SDS011;52406;45.078;38.986;2022-07-05T14:06:41;7.22;;;3.67;;
65686;SDS011;52406;45.078;38.986;2022-07-05T14:09:08;5.90;;;3.75;;
65686;SDS011;52406;45.078;38.986;2022-07-05T14:11:34;7.05;;;4.00;;
65686;SDS011;52406;45.078;38.986;2022-07-05T14:14:01;11.25;;;3.60;;
65686;SDS011;52406;45.078;38.986;2022-07-05T14:16:28;6.03;;;3.38;;
65686;SDS011;52406;45.078;38.986;2022-07-05T14:18:54;11.98;;;4.47;;
65686;SDS011;52406;45.078;38.986;2022-07-05T14:21:24;6.10;;;4.07;;
65686;SDS011;52406;45.078;38.986;2022-07-05T14:23:50;9.48;;;4.45;;
65686;SDS011;52406;45.078;38.986;2022-07-05T14:26:17;7.68;;;4.00;;
65686;SDS011;52406;45.078;38.986;2022-07-05T14:28:47;14.88;;;4.95;;
65686;SDS011;52406;45.078;38.986;2022-07-05T14:31:14;7.70;;;4.18;;
65686;SDS011;52406;45.078;38.986;2022-07-05T14:33:40;10.82;;;4.13;;
65686;SDS011;52406;45.078;38.986;2022-07-05T14:36:07;8.68;;;4.22;;
65686;SDS011;52406;45.078;38.986;2022-07-05T14:38:34;13.88;;;4.25;;
65686;SDS011;52406;45.078;38.986;2022-07-05T14:41:03;9.25;;;4.25;;
65686;SDS011;52406;45.078;38.986;2022-07-05T14:43:30;7.13;;;3.85;;
65686;SDS011;52406;45.078;38.986;2022-07-05T14:45:56;14.65;;;3.90;;
65686;SDS011;52406;45.078;38.986;2022-07-05T14:48:23;5.40;;;3.90;;
65686;SDS011;52406;45.078;38.986;2022-07-05T14:51:01;9.20;;;4.10;;
65686;SDS011;52406;45.078;38.986;2022-07-05T14:53:27;8.23;;;4.38;;
65686;SDS011;52406;45.078;38.986;2022-07-05T14:55:57;9.95;;;4.05;;
65686;SDS011;52406;45.078;38.986;2022-07-05T14:58:25;10.45;;;4.13;;
65686;SDS011;52406;45.078;38.986;2022-07-05T15:00:56;12.18;;;4.30;;
65686;SDS011;52406;45.078;38.986;2022-07-05T15:03:23;8.48;;;4.07;;
65686;SDS011;52406;45.078;38.986;2022-07-05T15:05:51;10.50;;;3.97;;
65686;SDS011;52406;45.078;38.986;2022-07-05T15:08:18;6.97;;;3.95;;
65686;SDS011;52406;45.078;38.986;2022-07-05T15:10:46;6.93;;;3.50;;
65686;SDS011;52406;45.078;38.986;2022-07-05T15:13:14;12.05;;;3.83;;
65686;SDS011;52406;45.078;38.986;2022-07-05T15:15:40;8.00;;;4.15;;
65686;SDS011;52406;45.078;38.986;2022-07-05T15:18:07;8.82;;;3.75;;
65686;SDS011;52406;45.078;38.986;2022-07-05T15:20:33;6.57;;;3.53;;